AGROMETEOROLOŠKI PORTAL
Vinorodna pokrajina

Temelj dobrega kmetovanja.

Izpis lokacij s podatki meritev in opazovanj za vse lokacije

Pregled minimalnih nočnih temperatur med 19.4.2024 od 22:00 in 20.4.2024 do 10:00 (zapri pregled)
Zahodna Slovenija
Lokacija Nadmorska višina Lega Višina meritve senzorja Datum in čas meritve Dosežena min. temperatura RH Veter (m/s) Temp. rosišča Temp. mokrega termometra
Bilje UVHVVR 55 m 2 m 21.4.2024 06:00 4,0 61,0 0,3 -2,8 1,3
Bilje UVHVVR 55 m 50 cm 21.4.2024 06:00 4,0 61,0 0,3 -2,8 1,3
Čelje 496 m V 2 m 21.4.2024 06:00 4,3 50,8 0,9 -5,0 0,7
Dragonja 34 m S 2 m 21.4.2024 06:00 4,7 57,2 0,5 -3,0 1,6
Dutovlje 316 m J 2 m 21.4.2024 06:00 3,8 48,0 0,5 -6,2 0,2
Komen 269 m J 2 m 21.4.2024 06:00 3,9 58,4 0,3 -3,5 1,0
Kozana 182 m S 2 m 21.4.2024 03:00 5,4 50,8 0,7 -3,9 1,8
Miren. 47 m S 2 m 21.4.2024 06:00 4,3 45,6 0,6 -6,4 0,4
Potoče 75 m 2 m 21.4.2024 06:00 4,0 54,4 0,3 -4,3 0,8
Pradisiol 3 m S 2 m 21.4.2024 06:00 3,7 70,0 0,2 -1,2 1,7
Puče 275 m J 2 m 21.4.2024 06:00 4,2 60,2 0,4 -2,8 1,4
Purisima 50 m J 2 m 21.4.2024 06:00 4,4 62,7 0,4 -2,1 1,8
Slap 112 m 2 m 21.4.2024 06:00 1,9 46,3 0,8 -8,4 -1,7
Sužid 231 m 2 m 21.4.2024 06:00 -0,9 58,4 0,4 -8,0 -3,3
Šlovrenc 92 m JZ 2 m 21.4.2024 06:00 5,3 47,8 0,7 -4,8 1,5
Truške 230 m 2 m 21.4.2024 06:00 3,8 63,8 0,4 -2,4 1,3
Vipolže 59 m 2 m 21.4.2024 06:00 5,3 47,8 0,7 -4,8 1,5
Višnjevik 223 m V 2 m 21.4.2024 06:00 5,4 44,4 0,6 -5,7 1,2
Vogrsko 62 m 2 m 21.4.2024 06:00 -0,7 66,9 0,2 -6,1 -2,6
Zavrhek 340 m J 2 m 21.4.2024 06:00 3,2 59,6 0,5 -3,9 0,5
Ajdovščina 83 m 2 m 21.4.2024 06:00 4,1 41,6 0,6 -7,7 -0,1
BILJE ARSO 55 m 2 m 21.4.2024 06:00 4,0 61,0 0,3 -2,8 1,3
BILJE ARSO 55 m 5 cm 21.4.2024 06:00 4,0 61,0 0,3 -2,8 1,3
Bovec - letališče ARSO 438 m 2 m 21.4.2024 06:00 -2,4 63,0 0,3 -8,5 -4,4
GODNJE ARSO 315 m 2 m 21.4.2024 06:00 3,8 48,0 0,5 -6,2 0,2
Ilirska Bistrica - Koseze ARSO 415 m 2 m 21.4.2024 06:00 2,3 59,2 0,9 -4,8 -0,4
KOPER - KAPITANIJA ARSO 0 m 2 m 21.4.2024 06:00 3,7 70,0 0,2 -1,2 1,7
KUBED ARSO 236 m 2 m 21.4.2024 06:00 5,1 52,8 0,7 -3,7 1,6
NOVA GORICA ARSO 111 m 2 m 21.4.2024 06:00 1,5 68,2 0,2 -3,7 -0,5
OTLICA - EKOLOSKA ARSO 947 m 2 m 21.4.2024 06:00 2,7 44,2 0,9 -8,2 -1,1
PODNANOS - ARSO 153 m 2 m 21.4.2024 06:00 2,1 51,6 0,6 -6,8 -1,1
Portorož-letališče ARSO 0 m 2 m 21.4.2024 06:00 4,2 60,4 0,4 -2,8 1,5
POSTOJNA ARSO 534 m 2 m 21.4.2024 06:00 1,5 65,1 0,5 -4,3 -0,7
POSTOJNA ARSO 534 m 5 cm 21.4.2024 06:00 1,5 65,1 0,5 -4,3 -0,7
ŠKOCJAN ARSO 420 m 2 m 21.4.2024 06:00 2,8 58,7 0,6 -4,5 0,0
VEDRIJAN ARSO 228 m 2 m 21.4.2024 03:00 4,9 48,5 0,6 -5,0 1,1
ZADLOG - ARSO 716 m 2 m 21.4.2024 06:00 1,4 53,3 0,4 -7,0 -1,6
Beneša - Ankaran (ZRSKP) 62 m 2 m 21.4.2024 06:00 4,3 65,5 0,3 -1,6 1,9
Mala Seva - Izola (ZRSKP) 90 m 2 m 21.4.2024 06:00 4,7 54,7 0,5 -3,6 1,5
Marezeige - Koper (ZRS) 189 m J 2 m 21.4.2024 06:00 3,8 63,8 0,4 -2,4 1,3
Semedela - Markovec (ZRSKP) 149 m 2 m 21.4.2024 06:00 4,2 61,6 0,5 -2,5 1,6
Kapelski vrh DRSI 285 m 2 m 21.4.2024 06:00 3,2 68,0 0,8 -2,1 1,1
Kobarid DRSI 242 m 2 m 21.4.2024 06:00 -0,9 58,4 0,4 -8,0 -3,3
Koper DRSI 5 m 2 m 21.4.2024 06:00 3,7 70,0 0,2 -1,2 1,7
Lazaret DRSI 2 m 2 m 21.4.2024 06:00 4,3 65,5 0,3 -1,6 1,9
Valeta DRSI 100 m 2 m 21.4.2024 06:00 4,7 54,7 0,5 -3,6 1,5
Cerovo 157 m 2 m 21.4.2024 03:00 5,4 50,8 0,7 -3,9 1,8
Hruševlje 105 m 2 m 21.4.2024 06:00 5,4 44,4 0,6 -5,7 1,2
Plešivo 109 m 2 m 21.4.2024 06:00 5,3 47,8 0,7 -4,8 1,5
Osrednja Slovenija
Lokacija Nadmorska višina Lega Višina meritve senzorja Datum in čas meritve Dosežena min. temperatura RH Veter (m/s) Temp. rosišča Temp. mokrega termometra
Borovnica 288 m 2 m 21.4.2024 06:00 1,0 76,9 0,2 -2,6 -0,4
Brdo pri Lukovici 368 m J 2 m 21.4.2024 06:00 -0,1 67,6 0,4 -5,4 -2,0
Češnjevek (Cerklje) 405 m S 2 m 21.4.2024 06:00 -0,4 72,9 0,1 -4,7 -2,0
Gabrska Gora 487 m 2 m 21.4.2024 06:00 2,4 73,9 0,2 -1,8 0,7
Jablje 302 m S 2 m 21.4.2024 06:00 1,8 72,1 0,3 -2,7 0,1
Jablje 302 m S 20 cm 21.4.2024 06:00 1,8 72,1 0,3 -2,7 0,1
Kamnik 377 m JV 2 m 21.4.2024 06:00 1,6 54,6 0,6 -6,5 -1,3
Kovor 514 m 20 cm 21.4.2024 06:00 -1,6 69,5 0,4 -6,4 -3,3
Kovor 514 m 2 m 21.4.2024 06:00 -1,6 69,5 0,4 -6,4 -3,3
Ljubljana KIS 297 m S 2 m 21.4.2024 06:00 1,1 78,9 0,1 -2,1 -0,2
Podbrezje 456 m JV 2 m 21.4.2024 06:00 0,3 74,2 0,4 -3,7 -1,2
Polževo 612 m 2 m 21.4.2024 06:00 2,2 76,9 0,4 -1,4 0,7
Resje 503 m 2 m 21.4.2024 06:00 0,9 61,2 0,5 -5,7 -1,5
Šentjakob 279 m 2 m 21.4.2024 06:00 1,7 78,2 0,2 -1,7 0,4
Šentjakob 279 m 20 cm 21.4.2024 06:00 1,7 78,2 0,2 -1,7 0,4
Vnajnarje 667 m S 2 m 21.4.2024 06:00 1,3 66,0 0,4 -4,3 -0,8
Žabnica (Dorfarje) 372 m 2 m 21.4.2024 06:00 1,8 66,8 0,3 -3,7 -0,3
BOHINJSKA ČEŠNJICA - ARSO 596 m 2 m 21.4.2024 06:00 -0,4 61,4 0,4 -6,9 -2,7
BORŠT PRI GORENJI VASI ARSO 532 m 2 m 21.4.2024 06:00 1,1 51,8 0,4 -7,7 -1,9
BRNIK - LETALIŠČE - ARSO 364 m 2 m 21.4.2024 06:00 1,4 67,7 0,3 -3,9 -0,6
Lesce 515 m 2 m 21.4.2024 06:00 -1,1 64,9 0,4 -6,9 -3,1
LITIJA ARSO 263 m 2 m 21.4.2024 06:00 2,0 72,0 0,3 -2,5 0,2
Ljubljana - Bežigrad ARSO 299 m 2 m 21.4.2024 06:00 1,1 78,9 0,1 -2,1 -0,2
LOGATEC - ARSO 486 m 2 m 21.4.2024 06:00 1,4 66,7 0,3 -4,1 -0,7
NOVA VAS - BLOKE - ARSO 718 m 2 m 21.4.2024 06:00 1,3 65,7 0,6 -4,4 -0,8
VRHNIKA ARSO 367 m 2 m 21.4.2024 06:00 2,4 77,2 0,1 -1,2 1,0
Jeprca DRSI 360 m 2 m 21.4.2024 06:00 1,8 66,8 0,3 -3,7 -0,3
Kranj - Delavski most DRSI 380 m 2 m 21.4.2024 06:00 1,0 67,3 0,4 -4,4 -1,0
Krtina 1 DRSI 308 m 2 m 21.4.2024 06:00 1,4 74,1 0,3 -2,7 -0,2
Moste pri Komendi DRSI 331 m 2 m 21.4.2024 06:00 1,4 65,5 0,3 -4,3 -0,7
Podvin DRSI 489 m 2 m 21.4.2024 06:00 0,9 61,2 0,5 -5,7 -1,5
Vir pri Domžalah DRSI 308 m 2 m 21.4.2024 06:00 1,4 74,4 0,3 -2,6 -0,2
Vrhnika AC priključek DRSI 293 m 2 m 21.4.2024 06:00 2,4 79,6 0,1 -0,8 1,1
Celjska in Koroška regija
Lokacija Nadmorska višina Lega Višina meritve senzorja Datum in čas meritve Dosežena min. temperatura RH Veter (m/s) Temp. rosišča Temp. mokrega termometra
Bistrica ob Sotli 324 m J 2 m 21.4.2024 06:00 4,1 62,7 0,8 -2,4 1,5
Braslovče (Pšaker) 322 m JV 2 m 21.4.2024 06:00 1,8 65,5 0,4 -4,0 -0,4
Braslovče (Pšaker) 322 m JV 50 cm 21.4.2024 06:00 1,8 65,5 0,4 -4,0 -0,4
Črnova (Gradišnik) 453 m JZ 2 m 21.4.2024 06:00 1,2 71,6 0,5 -3,3 -0,5
Gabernik-Rogaška 379 m JZ 2 m 21.4.2024 05:00 2,4 68,9 0,8 -2,7 0,4
Kasaze (Mirosan) 279 m S 2 m 21.4.2024 06:00 1,4 71,7 0,5 -3,1 -0,3
Latkova vas 279 m S 2 m 21.4.2024 06:00 1,8 67,2 0,6 -3,6 -0,2
Ojstriška vas 308 m Z 2 m 21.4.2024 06:00 2,0 64,1 0,4 -4,0 -0,3
Radlje ob Dravi 352 m 2 m 21.4.2024 06:00 -0,4 80,8 0,3 -3,3 -1,5
Slom 279 m S 2 m 21.4.2024 06:00 1,7 73,3 0,4 -2,5 0,0
Slovenske Konjice 377 m 2 m 21.4.2024 06:00 2,5 65,4 0,4 -3,3 0,3
Škofja vas 246 m 2 m 21.4.2024 06:00 1,2 82,5 0,1 -1,4 0,2
Virštanj 368 m S 2 m 21.4.2024 06:00 3,4 66,0 0,7 -2,3 1,1
Žalec (PDC) 254 m S 2 m 21.4.2024 06:00 1,1 76,8 0,4 -2,5 -0,3
Celje - Medlog ARSO 241 m S 2 m 21.4.2024 06:00 1,4 78,3 0,2 -2,0 0,1
HRASTNIK ARSO 284 m 2 m 21.4.2024 06:00 1,8 65,4 0,5 -4,0 -0,4
PODČETRTEK - ATOMSKE TOPLICE ARSO 201 m 2 m 21.4.2024 06:00 2,8 67,6 0,7 -2,6 0,7
RAVNE NA KOROŠKEM - ARSO 394 m 2 m 21.4.2024 06:00 0,6 65,4 0,5 -5,1 -1,5
ROGAŠKA SLATINA ARSO 289 m 2 m 21.4.2024 06:00 3,7 63,0 1,2 -2,7 1,2
SLOVENSKE KONJICE ARSO 315 m 2 m 21.4.2024 06:00 2,5 65,4 0,4 -3,3 0,3
ŠMARTNO PRI SLOVENJ GRADCU ARSO 442 m 2 m 21.4.2024 06:00 0,1 67,9 0,9 -5,1 -1,8
ŠMARTNO PRI SLOVENJ GRADCU ARSO 442 m 5 cm 21.4.2024 06:00 0,1 67,9 0,9 -5,1 -1,8
VELENJE - TEŠ ARSO 388 m 2 m 21.4.2024 06:00 1,2 64,7 0,6 -4,7 -1,0
Črnova DRSI 304 m 2 m 21.4.2024 06:00 1,6 76,4 0,4 -2,1 0,1
Podplat DRSI 230 m 2 m 21.4.2024 05:00 2,4 68,9 0,8 -2,7 0,4
Radlje DRSI 355 m 2 m 21.4.2024 06:00 -0,4 80,8 0,3 -3,3 -1,5
Rimske Toplice DRSI 210 m 2 m 21.4.2024 06:00 1,1 81,3 0,2 -1,7 0,0
Šentrupert DRSI 280 m 2 m 21.4.2024 06:00 1,8 67,2 0,6 -3,6 -0,2
Jugovzhodna Slovenija
Lokacija Nadmorska višina Lega Višina meritve senzorja Datum in čas meritve Dosežena min. temperatura RH Veter (m/s) Temp. rosišča Temp. mokrega termometra
Artiče 201 m J 2 m 21.4.2024 06:00 3,5 65,6 0,7 -2,3 1,2
Bizeljsko 347 m J 2 m 21.4.2024 06:00 4,2 61,2 1,0 -2,6 1,5
Blanca 278 m JZ 2 m 21.4.2024 06:00 1,8 74,9 0,4 -2,2 0,2
Blanca 278 m JZ 50 cm 21.4.2024 06:00 1,8 74,9 0,4 -2,2 0,2
Črnomelj 253 m JZ 2 m 21.4.2024 06:00 2,8 87,6 0,3 1,0 2,0
Drašiči 244 m J 2 m 21.4.2024 06:00 3,4 70,8 0,5 -1,4 1,5
Kostanjevica na Krki 165 m 2 m 21.4.2024 06:00 3,0 65,6 0,6 -2,8 0,7
Mali Podlog (Krško) 158 m 2 m 21.4.2024 06:00 3,8 67,1 0,7 -1,7 1,6
Mirna peč - začasna 258 m 2 m 21.4.2024 06:00 2,7 82,5 0,0 0,0 1,6
Otočec 198 m J 2 m 21.4.2024 06:00 4,0 65,7 0,5 -1,8 1,6
Rodine pri Trebnjem APS 284 m J 2 m 21.4.2024 06:00 2,3 79,1 0,1 -0,9 1,0
Sremič 466 m JZ 2 m 21.4.2024 06:00 2,0 72,9 0,6 -2,3 0,3
Šentjernej APS 231 m JV 2 m 21.4.2024 06:00 3,7 63,3 0,6 -2,6 1,2
Šentjernej APS 231 m JV 50 cm 21.4.2024 06:00 3,7 63,3 0,6 -2,6 1,2
CERKLJE - LETALIŠČE ARSO 155 m 2 m 21.4.2024 06:00 3,1 70,7 0,5 -1,7 1,2
ČRNOMELJ - DOBLIČE ARSO 155 m 2 m 21.4.2024 06:00 2,8 87,6 0,3 1,0 2,0
HOČKO POHORJE - ARSO 585 m 2 m 21.4.2024 06:00 3,6 63,5 1,4 -2,7 1,1
KRŠKO - NEK ARSO 155 m 2 m 21.4.2024 06:00 2,4 72,6 0,5 -2,0 0,7
MALKOVEC ARSO 397 m 2 m 21.4.2024 06:00 2,9 80,2 0,1 -0,2 1,6
METLIKA ARSO 166 m 2 m 21.4.2024 06:00 3,4 71,6 0,4 -1,2 1,5
NOVO MESTO ARSO 220 m 2 m 21.4.2024 06:00 3,1 76,3 0,2 -0,7 1,6
NOVO MESTO ARSO 220 m 5 cm 21.4.2024 06:00 3,1 76,3 0,2 -0,7 1,6
TREBNJE ARSO 303 m 2 m 21.4.2024 05:00 2,4 84,0 0,2 0,0 1,4
Elbl-2 DRSI 314 m 2 m 21.4.2024 06:00 3,9 54,8 0,9 -4,3 0,8
Krško DRSI 167 m 2 m 21.4.2024 06:00 2,4 72,6 0,5 -2,0 0,7
Trebnje DRSI 270 m 2 m 21.4.2024 06:00 2,3 79,1 0,1 -0,9 1,0
Severovzhodna Slovenija
Lokacija Nadmorska višina Lega Višina meritve senzorja Datum in čas meritve Dosežena min. temperatura RH Veter (m/s) Temp. rosišča Temp. mokrega termometra
Dravinjski vrh 304 m Z 2 m 21.4.2024 06:00 3,7 60,5 0,7 -3,2 1,0
Godemarci 212 m JV 50 cm 21.4.2024 06:00 2,8 69,9 0,9 -2,1 0,8
Godemarci 212 m JV 2 m 21.4.2024 06:00 2,8 69,9 0,9 -2,1 0,8
Litmerk - bionomija in RLP 314 m JZ 2 m 21.4.2024 06:00 3,2 68,6 1,4 -2,0 1,1
Maribor - BTŠ 276 m J 2 m 21.4.2024 06:00 3,1 64,4 0,9 -2,9 0,7
Meranovo 501 m JV 2 m 21.4.2024 06:00 3,0 64,2 1,2 -3,1 0,6
Moškanjci 213 m 2 m 21.4.2024 06:00 3,0 69,2 1,0 -2,1 1,0
Pohorski dvor 313 m V 2 m 21.4.2024 06:00 3,6 63,5 1,4 -2,7 1,1
Ritoznoj 402 m JV 2 m 21.4.2024 06:00 3,5 66,5 1,3 -2,1 1,3
Savci 245 m JZ 2 m 21.4.2024 06:00 3,2 67,7 1,1 -2,2 1,1
Selnica ob Dravi 311 m SV 2 m 21.4.2024 06:00 1,6 66,5 0,8 -3,9 -0,5
Selo 299 m J 2 m 21.4.2024 06:00 4,5 65,4 1,1 -1,4 2,1
Stročja vas 240 m SV 2 m 21.4.2024 06:00 3,8 67,9 1,4 -1,6 1,6
Špičnik 338 m 2 m 21.4.2024 06:00 2,6 64,6 0,8 -3,4 0,3
Vidonci 337 m JV 2 m 21.4.2024 06:00 3,3 67,3 1,2 -2,2 1,1
Vitomarci 299 m SV 2 m 21.4.2024 06:00 2,6 66,6 0,8 -3,0 0,4
Zbigovci - RLP 299 m Z 2 m 21.4.2024 06:00 2,0 71,7 0,6 -2,6 0,2
Zimica 296 m Z 2 m 21.4.2024 06:00 3,3 60,9 1,2 -3,5 0,7
GAČNIK ARSO 291 m 2 m 21.4.2024 06:00 3,0 63,3 0,9 -3,3 0,6
JERUZALEM - ARSO 335 m 2 m 21.4.2024 06:00 3,4 69,4 1,6 -1,6 1,4
LENDAVA - TERME ARSO 161 m 2 m 21.4.2024 06:00 4,5 67,2 1,1 -1,0 2,2
MARIBOR - LETALIŠČE ARSO 264 m 2 m 21.4.2024 06:00 3,6 63,3 1,3 -2,7 1,1
MARIBOR - VRBANSKI PLATO ARSO 274 m 2 m 21.4.2024 06:00 3,1 64,4 0,9 -2,9 0,7
MARINČA VAS - ARSO 272 m 2 m 21.4.2024 06:00 2,3 76,6 0,4 -1,4 0,8
MURSKA SOBOTA - RAKIČAN ARSO 184 m 2 m 21.4.2024 06:00 4,3 64,9 1,3 -1,7 1,9
MURSKA SOBOTA - RAKIČAN ARSO 184 m 5 cm 21.4.2024 06:00 4,3 64,9 1,3 -1,7 1,9
PTUJ - ARSO 222 m 2 m 21.4.2024 06:00 3,9 56,9 1,1 -3,8 0,9
SOTINSKI BREG ARSO 415 m 2 m 21.4.2024 06:00 3,0 68,2 0,7 -2,3 0,9
Dragatuš DRSI 160 m 2 m 21.4.2024 06:00 2,9 84,7 0,2 0,6 1,9
Gederovci DRSI 201 m 2 m 21.4.2024 06:00 3,6 66,9 1,1 -2,0 1,4
Mačkovci DRSI 271 m 2 m 21.4.2024 06:00 3,5 66,8 1,5 -2,1 1,3
Prosenjakovci DRSI 274 m 2 m 21.4.2024 06:00 4,5 65,4 1,1 -1,4 2,1
Šentilj DRSI 300 m 2 m 21.4.2024 06:00 3,2 61,4 0,6 -3,5 0,6
Postaje, katerih podatke prikazujemo na portalu, so postaje proizvajalca Adcon Telemetry in Pessl (UVHVVR/MKGP), postaje ARSO in postaje DRSI.

IZJAVA O OMEJITVI ODGOVORNOSTI: Uprava Republike Slovenije za varno hrano, veterinarstvo in varstvo rastlin (Uprava) skupaj z Opazovalno napovedovalno službo zdravstvenega varstva rastlin skrbi za nemoteno delovanje in vzdrževanje meteoroloških podatkov iz mreže agrometeoroloških postaj (Adcon Telemety). Agrometeorološki podatki, ki so objavljeni na tej strani, so zgolj informativne narave. Za morebitne vsebinske napake, do katerih lahko pride zaradi tehničnih težav pri vzdrževanju mreže, napak merilne opreme ali drugih nepredvidljivih vzrokov, napak pri vnosu, posodabljanja vsebin, Uprava ne prevzema odgovornosti, kakor tudi ne zaradi nepravilnega delovanja in/ali nedostopnosti vsebine teh spletnih strani. Uprava tudi ne prevzema odgovornosti za kakršnokoli neposredno ali posredno izgubo oziroma škodo, materialno in nematerialno, ki bi nastala zaradi dostopa, uporabe ali odločitve, sprejete na podlagi informacij, objavljenih na teh spletnih straneh, kakor tudi ne zaradi nepravilnega delovanja in/ali nedostopnosti vsebine teh spletnih strani. Uprava si pridržuje pravico do spremembe oziroma umika vsebine, deloma ali v celoti, brez predhodne najave. Vsak poskus nepooblaščenega spreminjanja ali poškodovanja spletnih strani, kot tudi nepooblaščen dostop do informacij mimo spletnih strani in do drugih vsebin, je kaznivo dejanje. Pri uporabi vsebin, objavljenih na portalu, je potrebno navesti vir podatkov (UVHVVR, Agrometeorološki portal Slovenije) in upoštevati avtorske pravice.